Palessa — V2IA7 — position and weather

sailwx.info

Track history (hours):
 
Tides and Currents Weather Stations Pressure Air Temp Water Temp Dewpoint Dewpoint Depression Visibility Wind Speed Wind Dir Waves Ship Positions

Palessa

Last reported at 2014-Oct-23 12:28 UTC. Time now 2014-Oct-24 16:54 UTC.
Position N 29°10' E 122°38'.

Length 118 m; draft 5.5 m.

Type: Cargo ship. MMSI: 304255000.

Date/timePositionNaut miles runAvg speedWind from/ knotsBaromVisibWave heightAir tempDewpointWater temp
2014-Oct-23 12:28N 29°10' E 122°38'139 9.3
2014-Oct-22 21:29N 31°20' E 121°41'1111.4
2014-Oct-22 20:33N 31°26' E 121°30'1111.1
2014-Oct-22 19:33N 31°33' E 121°20'1414.2
2014-Oct-22 18:32N 31°43' E 121°08'1212.4
2014-Oct-22 17:33N 31°49' E 120°55'1313.1
2014-Oct-22 16:33N 32°00' E 120°48'1312.8
2014-Oct-22 15:33N 32°03' E 120°34'1111.2
2014-Oct-22 14:34N 31°59' E 120°21'11 9.9
2014-Oct-22 13:27N 31°56' E 120°09'0 0.0
2014-Oct-22 12:24N 31°56' E 120°09'0 0.0
2014-Oct-22 11:27N 31°56' E 120°09'0 0.0
2014-Oct-22 10:27N 31°56' E 120°09'0 0.0
2014-Oct-22 09:30N 31°56' E 120°09'0 0.0
2014-Oct-22 07:27N 31°56' E 120°09'0 0.0
2014-Oct-22 06:30N 31°56' E 120°09'0 0.0
2014-Oct-22 05:33N 31°56' E 120°09'0 0.0
2014-Oct-22 04:33N 31°56' E 120°09'0 0.0
2014-Oct-22 03:27N 31°56' E 120°09'0 0.0
2014-Oct-22 02:27N 31°56' E 120°09'0 0.0
2014-Oct-22 01:30N 31°56' E 120°09'0 0.0
2014-Oct-22 00:30N 31°56' E 120°09'0 0.0
2014-Oct-21 23:30N 31°56' E 120°09'0 0.0
2014-Oct-21 22:12N 31°56' E 120°09'0 0.0
2014-Oct-21 21:30N 31°56' E 120°09'0 0.0
2014-Oct-21 20:24N 31°56' E 120°09'0 0.0
2014-Oct-21 19:30N 31°56' E 120°09'0 0.0
2014-Oct-21 18:18N 31°56' E 120°09'0 0.0
2014-Oct-21 17:24N 31°56' E 120°09'0 0.0
2014-Oct-21 16:24N 31°56' E 120°09'0 0.0
2014-Oct-21 15:27N 31°56' E 120°09'0 0.0
2014-Oct-21 14:24N 31°56' E 120°09'0 0.0
2014-Oct-21 13:33N 31°56' E 120°09'0 0.0
2014-Oct-21 12:33N 31°56' E 120°09'0 0.0
2014-Oct-21 11:27N 31°56' E 120°09'0 0.0
2014-Oct-21 10:33N 31°56' E 120°09'0 0.0
2014-Oct-21 09:30N 31°56' E 120°09'0 0.0
2014-Oct-21 08:30N 31°56' E 120°09'0 0.0
2014-Oct-21 07:33N 31°56' E 120°09'0 0.0
2014-Oct-21 06:27N 31°56' E 120°09'0 0.0
2014-Oct-21 00:27N 31°56' E 120°09'0 0.0
2014-Oct-20 23:30N 31°56' E 120°09'0 0.0
2014-Oct-20 22:27N 31°56' E 120°09'0 0.0
2014-Oct-20 20:21N 31°56' E 120°09'0 0.0
2014-Oct-20 19:18N 31°56' E 120°09'0 0.0
2014-Oct-20 16:33N 31°56' E 120°09'0 0.0
2014-Oct-20 15:27N 31°56' E 120°09'0 0.0
2014-Oct-20 14:30N 31°56' E 120°09'0 0.0
2014-Oct-20 13:27N 31°56' E 120°09'0 0.2
2014-Oct-20 12:33N 31°56' E 120°09'6 5.8
2014-Oct-20 11:33N 31°57' E 120°16'8 8.5
2014-Oct-20 10:34N 32°02' E 120°24'8 8.2
2014-Oct-20 09:33N 32°03' E 120°33'11 9.9
2014-Oct-20 08:29N 32°01' E 120°45'1112.0
2014-Oct-20 07:33N 31°52' E 120°54'1310.7
2014-Oct-20 06:20N 31°45' E 121°06'1012.8
2014-Oct-20 05:32N 31°38' E 121°15'1212.4
2014-Oct-20 04:33N 31°30' E 121°26'9 9.5
2014-Oct-20 03:33N 31°24' E 121°34'9 8.8
2014-Oct-20 02:31N 31°18' E 121°43'3310.6
2014-Oct-19 23:24N 31°03' E 122°17'5 6.2
2014-Oct-19 22:31N 31°02' E 122°23'8 7.8
2014-Oct-19 21:28N 31°00' E 122°33'  
Track history (hours):
 
Tides and Currents Weather Stations Pressure Air Temp Water Temp Dewpoint Dewpoint Depression Visibility Wind Speed Wind Dir Waves Ship Positions

Palessa

Last reported at 2014-Oct-23 12:28 UTC. Time now 2014-Oct-24 16:54 UTC.
Position N 29°10' E 122°38'.

Length 118 m; draft 5.5 m.

Type: Cargo ship. MMSI: 304255000.

Date/timePositionNaut miles runAvg speedWind from/ knotsBaromVisibWave heightAir tempDewpointWater temp
2014-Oct-23 12:28N 29°10' E 122°38'139 9.3
2014-Oct-22 21:29N 31°20' E 121°41'1111.4
2014-Oct-22 20:33N 31°26' E 121°30'1111.1
2014-Oct-22 19:33N 31°33' E 121°20'1414.2
2014-Oct-22 18:32N 31°43' E 121°08'1212.4
2014-Oct-22 17:33N 31°49' E 120°55'1313.1
2014-Oct-22 16:33N 32°00' E 120°48'1312.8
2014-Oct-22 15:33N 32°03' E 120°34'1111.2
2014-Oct-22 14:34N 31°59' E 120°21'11 9.9
2014-Oct-22 13:27N 31°56' E 120°09'0 0.0
2014-Oct-22 12:24N 31°56' E 120°09'0 0.0
2014-Oct-22 11:27N 31°56' E 120°09'0 0.0
2014-Oct-22 10:27N 31°56' E 120°09'0 0.0
2014-Oct-22 09:30N 31°56' E 120°09'0 0.0
2014-Oct-22 07:27N 31°56' E 120°09'0 0.0
2014-Oct-22 06:30N 31°56' E 120°09'0 0.0
2014-Oct-22 05:33N 31°56' E 120°09'0 0.0
2014-Oct-22 04:33N 31°56' E 120°09'0 0.0
2014-Oct-22 03:27N 31°56' E 120°09'0 0.0
2014-Oct-22 02:27N 31°56' E 120°09'0 0.0
2014-Oct-22 01:30N 31°56' E 120°09'0 0.0
2014-Oct-22 00:30N 31°56' E 120°09'0 0.0
2014-Oct-21 23:30N 31°56' E 120°09'0 0.0
2014-Oct-21 22:12N 31°56' E 120°09'0 0.0
2014-Oct-21 21:30N 31°56' E 120°09'0 0.0
2014-Oct-21 20:24N 31°56' E 120°09'0 0.0
2014-Oct-21 19:30N 31°56' E 120°09'0 0.0
2014-Oct-21 18:18N 31°56' E 120°09'0 0.0
2014-Oct-21 17:24N 31°56' E 120°09'0 0.0
2014-Oct-21 16:24N 31°56' E 120°09'0 0.0
2014-Oct-21 15:27N 31°56' E 120°09'0 0.0
2014-Oct-21 14:24N 31°56' E 120°09'0 0.0
2014-Oct-21 13:33N 31°56' E 120°09'0 0.0
2014-Oct-21 12:33N 31°56' E 120°09'0 0.0
2014-Oct-21 11:27N 31°56' E 120°09'0 0.0
2014-Oct-21 10:33N 31°56' E 120°09'0 0.0
2014-Oct-21 09:30N 31°56' E 120°09'0 0.0
2014-Oct-21 08:30N 31°56' E 120°09'0 0.0
2014-Oct-21 07:33N 31°56' E 120°09'0 0.0
2014-Oct-21 06:27N 31°56' E 120°09'0 0.0
2014-Oct-21 00:27N 31°56' E 120°09'0 0.0
2014-Oct-20 23:30N 31°56' E 120°09'0 0.0
2014-Oct-20 22:27N 31°56' E 120°09'0 0.0
2014-Oct-20 20:21N 31°56' E 120°09'0 0.0
2014-Oct-20 19:18N 31°56' E 120°09'0 0.0
2014-Oct-20 16:33N 31°56' E 120°09'0 0.0
2014-Oct-20 15:27N 31°56' E 120°09'0 0.0
2014-Oct-20 14:30N 31°56' E 120°09'0 0.0
2014-Oct-20 13:27N 31°56' E 120°09'0 0.2
2014-Oct-20 12:33N 31°56' E 120°09'6 5.8
2014-Oct-20 11:33N 31°57' E 120°16'8 8.5
2014-Oct-20 10:34N 32°02' E 120°24'8 8.2
2014-Oct-20 09:33N 32°03' E 120°33'11 9.9
2014-Oct-20 08:29N 32°01' E 120°45'1112.0
2014-Oct-20 07:33N 31°52' E 120°54'1310.7
2014-Oct-20 06:20N 31°45' E 121°06'1012.8
2014-Oct-20 05:32N 31°38' E 121°15'1212.4
2014-Oct-20 04:33N 31°30' E 121°26'9 9.5
2014-Oct-20 03:33N 31°24' E 121°34'9 8.8
2014-Oct-20 02:31N 31°18' E 121°43'3310.6
2014-Oct-19 23:24N 31°03' E 122°17'5 6.2
2014-Oct-19 22:31N 31°02' E 122°23'8 7.8
2014-Oct-19 21:28N 31°00' E 122°33'  

Dump ship's entire track history